CDT,Max TemperatureF,Mean TemperatureF,Min TemperatureF,Max Dew PointF,MeanDew PointF,Min DewpointF,Max Humidity, Mean Humidity, Min Humidity, Max Sea Level PressureIn, Mean Sea Level PressureIn, Min Sea Level PressureIn, Max VisibilityMiles, Mean VisibilityMiles, Min VisibilityMiles, Max Wind SpeedMPH, Mean Wind SpeedMPH, Max Gust SpeedMPH,PrecipitationIn, CloudCover, Events, WindDirDegrees
2012-10-1,68,52,37,48,40,32,100,61,34,29.99,29.92,29.85,10,10,10,18,6,25,0.00,2,,325
2012-10-2,69,50,30,39,34,30,100,62,26,29.99,29.90,29.81,10,10,4,14,3,20,0.00,0,,180
2012-10-3,77,57,37,45,38,30,93,55,19,29.91,29.87,29.85,10,10,7,9,3,,0.00,0,,138
2012-10-4,55,45,35,45,37,30,93,75,61,30.00,29.83,29.64,10,9,2,21,11,32,0.00,6,,227
2012-10-5,41,37,33,32,29,27,93,77,61,30.10,30.02,29.98,10,9,2,20,14,31,0.00,8,,280
2012-10-6,42,37,30,32,28,21,100,75,42,30.26,30.20,30.10,10,10,1,13,7,17,0.00,6,,315
2012-10-7,50,39,28,28,24,19,93,60,30,30.17,29.99,29.81,10,10,10,16,5,25,0.00,0,,203
2012-10-8,50,41,32,43,31,21,81,69,56,29.80,29.65,29.53,10,10,10,14,6,28,0.01,5,,185
2012-10-9,42,38,33,37,33,30,87,78,65,29.92,29.75,29.65,10,10,5,20,8,24,0.01,5,,269
2012-10-10,44,38,32,32,29,23,93,73,43,30.02,29.96,29.91,10,10,4,12,5,17,0.06,5,,265
2012-10-11,42,36,30,34,28,23,100,78,46,30.36,30.12,29.88,10,10,2,18,6,23,0.07,4,,315
2012-10-12,48,34,19,30,21,16,100,63,32,30.41,30.28,29.99,10,10,7,16,4,21,0.00,1,,165
2012-10-13,51,43,35,45,36,19,100,73,37,29.97,29.79,29.70,10,8,0,14,8,18,0.00,7,,145
2012-10-14,55,47,39,43,38,32,100,76,41,29.87,29.82,29.78,10,7,0,15,5,20,0.00,5,,344
2012-10-15,57,44,30,37,33,28,100,65,38,29.93,29.85,29.69,10,10,10,12,4,,0.00,2,,190
2012-10-16,68,56,44,48,44,36,93,70,43,29.68,29.51,29.37,10,10,7,10,6,17,0.07,3,,167
2012-10-17,60,51,42,50,45,41,100,89,68,29.38,29.21,29.07,10,9,3,14,6,24,0.01,6,,140
2012-10-18,50,46,42,45,43,41,100,91,82,29.41,29.24,29.16,10,9,2,7,2,,0.06,8,,267
2012-10-19,51,44,33,46,41,32,100,82,58,29.73,29.60,29.41,10,9,2,10,2,,0.13,7,,38
2012-10-20,53,40,28,41,35,28,100,82,54,29.80,29.76,29.73,10,9,1,9,2,,0.00,2,,174
2012-10-21,64,50,37,45,41,36,100,76,37,29.94,29.84,29.79,10,8,1,12,5,16,0.00,3,,133
2012-10-22,53,48,44,46,44,41,93,83,71,30.06,30.01,29.95,10,10,10,18,7,23,0.00,7,,51
2012-10-23,51,48,44,52,45,43,100,95,87,29.94,29.80,29.73,10,4,1,16,11,21,0.01,8,Thunderstorm,98
2012-10-24,55,48,41,55,48,37,100,93,77,29.90,29.84,29.76,10,8,1,14,5,26,0.05,8,Thunderstorm,327
2012-10-25,41,36,32,37,32,28,100,90,75,30.02,29.86,29.77,10,7,0,16,12,23,0.21,8,,303
2012-10-26,35,32,30,28,24,19,81,68,56,30.28,30.20,30.03,10,10,10,16,9,23,0.00,7,,259
2012-10-27,37,32,28,27,22,19,80,66,48,30.31,30.28,30.25,10,10,10,10,2,16,0.00,5,,250
2012-10-28,37,34,30,32,29,23,100,85,69,30.31,30.29,30.28,10,8,1,9,3,,0.00,8,,156
2012-10-29,44,38,32,30,27,23,93,69,43,30.31,30.29,30.26,10,10,10,12,5,,0.00,7,,121
2012-10-30,46,36,26,36,27,18,100,75,36,30.27,30.19,30.08,10,8,0,9,2,,0.00,2,,33
2012-10-31,48,34,21,28,20,12,93,62,24,30.08,30.00,29.91,10,10,7,8,3,,0.00,2,,317